createdAt,value
2022-12-20T00:00:52.523Z,100388.59
2022-12-20T00:03:20.779Z,100385.38
2022-12-20T00:05:48.586Z,100390.00
2022-12-20T00:08:16.263Z,100386.50
2022-12-20T00:10:45.342Z,100399.78
2022-12-20T00:13:13.040Z,100404.94
2022-12-20T00:15:40.382Z,100389.28
2022-12-20T00:18:07.691Z,100386.88
2022-12-20T00:20:35.625Z,100387.06
2022-12-20T00:23:03.195Z,100383.69
2022-12-20T00:25:30.181Z,100375.41
2022-12-20T00:27:57.230Z,100364.75
2022-12-20T00:30:25.805Z,100384.44
2022-12-20T00:32:52.844Z,100383.69
2022-12-20T00:35:20.287Z,100388.13
2022-12-20T00:37:47.447Z,100358.78
2022-12-20T00:40:14.759Z,100362.59
2022-12-20T00:42:41.830Z,100359.97
2022-12-20T00:45:09.712Z,100356.81
2022-12-20T00:47:36.789Z,100371.00
2022-12-20T00:50:04.017Z,100366.72
2022-12-20T00:52:31.301Z,100372.06
2022-12-20T00:54:58.329Z,100352.19
2022-12-20T00:57:25.373Z,100330.22
2022-12-20T00:59:52.468Z,100349.25
2022-12-20T01:02:19.904Z,100344.41
2022-12-20T01:04:49.692Z,100320.03
2022-12-20T01:07:16.824Z,100335.47
2022-12-20T01:09:43.761Z,100334.00
2022-12-20T01:12:11.616Z,100342.09
2022-12-20T01:14:38.874Z,100336.84
2022-12-20T01:17:05.837Z,100323.19
2022-12-20T01:19:32.832Z,100330.75
2022-12-20T01:21:59.993Z,100333.56
2022-12-20T01:24:26.995Z,100321.59
2022-12-20T01:26:53.991Z,100315.59
2022-12-20T01:29:21.767Z,100321.06
2022-12-20T01:31:49.029Z,100305.41
2022-12-20T01:34:16.307Z,100305.53
2022-12-20T01:36:43.305Z,100306.44
2022-12-20T01:39:15.762Z,100308.25
2022-12-20T01:41:44.084Z,100295.00
2022-12-20T01:44:17.138Z,100304.47
2022-12-20T01:46:45.996Z,100285.34
2022-12-20T01:49:29.471Z,100278.59
2022-12-20T01:52:06.484Z,100275.03
2022-12-20T01:54:53.363Z,100281.53
2022-12-20T01:57:30.103Z,100279.66
2022-12-20T02:00:00.754Z,100281.97
2022-12-20T02:02:28.115Z,100284.69
2022-12-20T02:04:55.604Z,100288.16
2022-12-20T02:07:25.992Z,100285.19
2022-12-20T02:09:54.175Z,100287.41
2022-12-20T02:12:23.638Z,100277.22
2022-12-20T02:15:30.950Z,100281.28
2022-12-20T02:18:22.528Z,100279.16
2022-12-20T02:21:24.831Z,100267.59
2022-12-20T02:24:13.361Z,100278.69
2022-12-20T02:26:58.500Z,100288.34
2022-12-20T02:29:25.983Z,100278.03
2022-12-20T02:32:07.017Z,100268.53
2022-12-20T02:34:36.223Z,100267.47
2022-12-20T02:37:03.420Z,100263.19
2022-12-20T02:39:31.424Z,100256.78
2022-12-20T02:42:02.890Z,100259.19
2022-12-20T02:44:49.541Z,100260.59
2022-12-20T02:47:24.672Z,100255.28
2022-12-20T02:49:52.717Z,100252.09
2022-12-20T02:52:21.307Z,100259.81
2022-12-20T02:54:54.424Z,100254.28
2022-12-20T02:57:43.463Z,100252.50
2022-12-20T03:00:12.496Z,100241.28
2022-12-20T03:02:59.813Z,100251.88
2022-12-20T03:05:27.613Z,100239.50
2022-12-20T03:07:55.250Z,100223.97
2022-12-20T03:10:24.755Z,100222.84
2022-12-20T03:12:52.716Z,100215.00
2022-12-20T03:15:20.150Z,100199.34
2022-12-20T03:17:50.502Z,100197.50
2022-12-20T03:20:17.754Z,100203.75
2022-12-20T03:22:44.633Z,100207.78
2022-12-20T03:25:11.645Z,100200.75
2022-12-20T03:27:40.491Z,100200.94
2022-12-20T03:30:09.353Z,100198.31
2022-12-20T03:32:42.877Z,100200.50
2022-12-20T03:35:10.948Z,100195.63
2022-12-20T03:37:40.530Z,100190.69
2022-12-20T03:40:08.573Z,100191.06
2022-12-20T03:42:35.874Z,100203.34
2022-12-20T03:45:03.300Z,100202.88
2022-12-20T03:47:32.607Z,100196.22
2022-12-20T03:49:59.738Z,100187.19
2022-12-20T03:52:30.902Z,100186.88
2022-12-20T03:54:58.247Z,100188.06
2022-12-20T03:57:32.710Z,100182.25
2022-12-20T04:00:00.514Z,100166.56
2022-12-20T04:02:28.180Z,100161.47
2022-12-20T04:04:55.664Z,100150.84
2022-12-20T04:07:23.106Z,100155.41
2022-12-20T04:09:50.832Z,100139.81
2022-12-20T04:12:18.268Z,100135.50
2022-12-20T04:14:45.674Z,100138.50
2022-12-20T04:17:13.572Z,100140.44
2022-12-20T04:19:43.931Z,100129.16
2022-12-20T04:22:12.073Z,100119.31
2022-12-20T04:24:59.395Z,100119.78
2022-12-20T04:27:31.499Z,100123.56
2022-12-20T04:29:58.919Z,100108.69
2022-12-20T04:32:26.447Z,100121.03
2022-12-20T04:34:53.961Z,100111.59
2022-12-20T04:37:21.240Z,100114.00
2022-12-20T04:39:53.258Z,100109.91
2022-12-20T04:42:23.703Z,100117.84
2022-12-20T04:44:52.503Z,100115.22
2022-12-20T04:47:24.462Z,100116.44
2022-12-20T04:49:53.187Z,100109.00
2022-12-20T04:52:45.656Z,100110.66
2022-12-20T04:55:15.179Z,100102.91
2022-12-20T04:57:43.938Z,100105.59
2022-12-20T05:00:15.507Z,100098.84
2022-12-20T05:02:46.061Z,100093.00
2022-12-20T05:05:18.194Z,100101.59
2022-12-20T05:07:52.789Z,100098.03
2022-12-20T05:10:20.321Z,100101.78
2022-12-20T05:12:54.075Z,100088.78
2022-12-20T05:15:39.784Z,100082.53
2022-12-20T05:18:07.798Z,100081.59
2022-12-20T05:20:45.328Z,100074.28
2022-12-20T05:23:30.835Z,100079.53
2022-12-20T05:26:17.984Z,100071.22
2022-12-20T05:28:45.618Z,100073.75
2022-12-20T05:31:12.842Z,100065.16
2022-12-20T05:33:40.167Z,100068.63
2022-12-20T05:36:09.431Z,100057.22
2022-12-20T05:38:40.425Z,100055.53
2022-12-20T05:41:14.043Z,100054.03
2022-12-20T05:43:42.288Z,100046.38
2022-12-20T05:46:11.171Z,100050.28
2022-12-20T05:48:50.709Z,100046.78
2022-12-20T05:51:17.899Z,100051.13
2022-12-20T05:54:02.948Z,100035.75
2022-12-20T05:56:48.914Z,100030.31
2022-12-20T05:59:20.515Z,100029.56
2022-12-20T06:01:47.637Z,100024.72
2022-12-20T06:04:17.774Z,100026.38
2022-12-20T06:06:47.040Z,100039.28
2022-12-20T06:09:17.747Z,100035.81
2022-12-20T06:11:51.768Z,100029.44
2022-12-20T06:14:19.069Z,100033.47
2022-12-20T06:16:48.154Z,100034.13
2022-12-20T06:19:21.363Z,100040.19
2022-12-20T06:21:50.470Z,100031.25
2022-12-20T06:24:21.574Z,100032.47
2022-12-20T06:26:49.136Z,100026.00
2022-12-20T06:29:20.960Z,100017.41
2022-12-20T06:31:55.274Z,100028.22
2022-12-20T06:34:22.791Z,100016.50
2022-12-20T06:36:49.997Z,100023.56
2022-12-20T06:39:28.213Z,100022.81
2022-12-20T06:42:07.187Z,100024.41
2022-12-20T06:44:41.007Z,100016.66
2022-12-20T06:47:08.406Z,99997.97
2022-12-20T06:49:35.578Z,99982.50
2022-12-20T06:52:09.466Z,99992.56
2022-12-20T06:54:48.564Z,99998.66
2022-12-20T06:57:15.933Z,99980.44
2022-12-20T06:59:46.326Z,99978.94
2022-12-20T07:02:13.801Z,99969.63
2022-12-20T07:04:41.357Z,99964.47
2022-12-20T07:07:08.513Z,99965.88
2022-12-20T07:09:41.436Z,99947.88
2022-12-20T07:12:09.873Z,99953.47
2022-12-20T07:15:02.444Z,99951.50
2022-12-20T07:17:30.420Z,99945.59
2022-12-20T07:19:57.481Z,99934.28
2022-12-20T07:22:24.378Z,99935.38
2022-12-20T07:24:53.900Z,99926.13
2022-12-20T07:27:29.529Z,99929.63
2022-12-20T07:29:56.828Z,99921.91
2022-12-20T07:32:23.933Z,99921.31
2022-12-20T07:34:53.742Z,99916.00
2022-12-20T07:37:20.849Z,99916.09
2022-12-20T07:39:47.779Z,99901.28
2022-12-20T07:42:15.073Z,99898.31
2022-12-20T07:44:43.761Z,99896.47
2022-12-20T07:47:10.831Z,99888.28
2022-12-20T07:49:37.776Z,99883.22
2022-12-20T07:52:06.111Z,99870.31
2022-12-20T07:54:38.726Z,99868.44
2022-12-20T07:57:24.406Z,99866.44
2022-12-20T07:59:55.096Z,99848.91
2022-12-20T08:02:32.081Z,99855.72
2022-12-20T08:05:00.056Z,99846.69
2022-12-20T08:07:28.725Z,99842.25
2022-12-20T08:09:55.888Z,99827.50
2022-12-20T08:12:23.106Z,99824.53
2022-12-20T08:14:52.587Z,99811.38
2022-12-20T08:17:19.796Z,99810.66
2022-12-20T08:19:47.775Z,99808.22
2022-12-20T08:22:15.175Z,99794.69
2022-12-20T08:24:42.075Z,99797.16
2022-12-20T08:27:09.243Z,99802.41
2022-12-20T08:29:36.367Z,99806.97
2022-12-20T08:32:03.777Z,99791.41
2022-12-20T08:34:31.340Z,99779.66
2022-12-20T08:36:58.333Z,99782.59
2022-12-20T08:39:25.432Z,99782.69
2022-12-20T08:41:52.770Z,99779.59
2022-12-20T08:44:20.022Z,99767.03
2022-12-20T08:46:50.640Z,99770.25
2022-12-20T08:49:17.793Z,99767.75
2022-12-20T08:51:44.847Z,99767.31
2022-12-20T08:54:11.883Z,99758.16
2022-12-20T08:56:38.878Z,99760.66
2022-12-20T08:59:06.117Z,99748.25
2022-12-20T09:01:34.266Z,99749.66
2022-12-20T09:06:42.579Z,99738.28
2022-12-20T09:09:09.557Z,99731.38
2022-12-20T09:11:36.663Z,99715.47
2022-12-20T09:14:03.838Z,99692.97
2022-12-20T09:16:32.972Z,99698.47
2022-12-20T09:19:05.584Z,99693.72
2022-12-20T09:21:34.299Z,99678.84
2022-12-20T09:24:01.463Z,99681.59
2022-12-20T09:26:28.530Z,99678.13
2022-12-20T09:28:55.677Z,99667.28
2022-12-20T09:31:24.611Z,99664.22
2022-12-20T09:33:56.531Z,99662.03
2022-12-20T09:36:25.796Z,99660.72
2022-12-20T09:38:52.782Z,99649.53
2022-12-20T09:41:41.087Z,99644.69
2022-12-20T09:44:33.686Z,99638.06
2022-12-20T09:47:21.632Z,99629.16
2022-12-20T09:49:53.823Z,99622.41
2022-12-20T09:52:30.224Z,99617.94
2022-12-20T09:55:28.471Z,99613.22
2022-12-20T09:58:22.893Z,99612.78
2022-12-20T10:00:54.317Z,99610.56
2022-12-20T10:03:30.759Z,99594.88
2022-12-20T10:06:12.071Z,99588.28
2022-12-20T10:08:46.581Z,99578.16
2022-12-20T10:11:43.390Z,99567.41
2022-12-20T10:14:43.012Z,99558.97
2022-12-20T10:17:33.259Z,99555.78
2022-12-20T10:20:20.089Z,99539.75
2022-12-20T10:22:56.792Z,99540.00
2022-12-20T10:25:27.717Z,99532.13
2022-12-20T10:27:57.173Z,99528.44
2022-12-20T10:30:33.608Z,99529.13
2022-12-20T10:33:00.855Z,99517.09
2022-12-20T10:35:34.474Z,99519.34
2022-12-20T10:38:12.642Z,99515.34
2022-12-20T10:41:19.389Z,99511.56
2022-12-20T10:44:25.773Z,99514.00
2022-12-20T10:46:57.856Z,99516.56
2022-12-20T10:49:28.735Z,99504.03
2022-12-20T10:51:58.892Z,99508.44
2022-12-20T10:54:38.978Z,99506.88
2022-12-20T10:57:28.291Z,99505.94
2022-12-20T11:00:01.619Z,99507.63
2022-12-20T11:02:41.606Z,99505.84
2022-12-20T11:05:10.073Z,99506.38
2022-12-20T11:10:45.740Z,99494.94
2022-12-20T11:13:40.044Z,99490.66
2022-12-20T11:16:09.665Z,99489.28
2022-12-20T11:18:54.747Z,99493.81
2022-12-20T11:21:30.814Z,99498.34
2022-12-20T11:24:35.648Z,99497.47
2022-12-20T11:27:16.917Z,99505.22
2022-12-20T11:30:10.170Z,99503.13
2022-12-20T11:32:49.127Z,99493.09
2022-12-20T11:35:28.457Z,99494.06
2022-12-20T11:38:09.875Z,99491.84
2022-12-20T11:40:49.381Z,99483.66
2022-12-20T11:43:48.103Z,99486.25
2022-12-20T11:46:33.859Z,99478.94
2022-12-20T11:49:10.154Z,99478.09
2022-12-20T11:51:48.539Z,99475.81
2022-12-20T11:54:25.709Z,99478.06
2022-12-20T11:56:56.884Z,99466.63
2022-12-20T11:59:36.946Z,99462.19
2022-12-20T12:02:13.572Z,99466.44
2022-12-20T12:04:59.394Z,99459.47
2022-12-20T12:07:30.176Z,99446.41
2022-12-20T12:10:13.272Z,99452.34
2022-12-20T12:12:45.817Z,99453.41
2022-12-20T12:15:17.240Z,99455.44
2022-12-20T12:18:07.649Z,99448.28
2022-12-20T12:20:43.559Z,99448.78
2022-12-20T12:23:36.934Z,99447.31
2022-12-20T12:26:13.918Z,99443.63
2022-12-20T12:28:41.051Z,99446.88
2022-12-20T12:31:18.690Z,99456.03
2022-12-20T12:34:24.249Z,99458.59
2022-12-20T12:37:20.902Z,99457.09
2022-12-20T12:39:59.697Z,99448.19
2022-12-20T12:42:55.886Z,99457.38
2022-12-20T12:45:41.976Z,99454.41
2022-12-20T12:48:19.052Z,99455.97
2022-12-20T12:50:52.012Z,99455.03
2022-12-20T12:53:27.509Z,99464.03
2022-12-20T12:56:12.809Z,99460.47
2022-12-20T12:58:48.706Z,99459.03
2022-12-20T13:01:51.881Z,99452.72
2022-12-20T13:04:22.479Z,99454.19
2022-12-20T13:06:49.992Z,99450.94
2022-12-20T13:09:26.328Z,99449.59
2022-12-20T13:12:01.069Z,99454.84
2022-12-20T13:14:30.673Z,99450.47
2022-12-20T13:17:22.189Z,99448.28
2022-12-20T13:19:55.686Z,99445.44
2022-12-20T13:22:24.355Z,99443.78
2022-12-20T13:25:04.827Z,99446.50
2022-12-20T13:27:37.151Z,99434.38
2022-12-20T13:30:07.283Z,99430.78
2022-12-20T13:32:49.467Z,99432.59
2022-12-20T13:35:25.585Z,99434.38
2022-12-20T13:38:13.823Z,99430.50
2022-12-20T13:40:55.760Z,99441.59
2022-12-20T13:43:24.130Z,99439.81
2022-12-20T13:46:03.500Z,99436.72
2022-12-20T13:48:36.464Z,99433.69
2022-12-20T13:51:04.335Z,99438.19
2022-12-20T13:53:31.600Z,99429.81
2022-12-20T13:55:58.807Z,99442.81
2022-12-20T13:58:28.316Z,99447.16
2022-12-20T14:01:06.490Z,99431.84
2022-12-20T14:03:34.552Z,99432.88
2022-12-20T14:06:04.046Z,99432.97
2022-12-20T14:08:33.849Z,99432.38
2022-12-20T14:11:12.298Z,99427.84
2022-12-20T14:13:40.636Z,99426.69
2022-12-20T14:16:19.433Z,99424.19
2022-12-20T14:19:01.191Z,99416.56
2022-12-20T14:21:29.767Z,99415.84
2022-12-20T14:23:59.438Z,99416.47
2022-12-20T14:26:44.906Z,99421.19
2022-12-20T14:29:13.092Z,99412.94
2022-12-20T14:31:44.763Z,99405.31
2022-12-20T14:34:11.931Z,99413.75
2022-12-20T14:36:41.713Z,99411.03
2022-12-20T14:39:31.085Z,99406.03
2022-12-20T14:42:03.936Z,99408.38
2022-12-20T14:44:32.088Z,99420.50
2022-12-20T14:47:20.844Z,99414.22
2022-12-20T14:49:49.787Z,99413.81
2022-12-20T14:52:36.055Z,99416.41
2022-12-20T14:55:10.702Z,99414.84
2022-12-20T14:57:46.169Z,99407.53
2022-12-20T15:00:13.780Z,99414.88
2022-12-20T15:02:56.482Z,99413.28
2022-12-20T15:05:34.257Z,99411.13
2022-12-20T15:08:15.903Z,99402.97
2022-12-20T15:11:09.682Z,99398.78
2022-12-20T15:13:41.305Z,99403.50
2022-12-20T15:16:26.367Z,99405.69
2022-12-20T15:19:00.545Z,99401.50
2022-12-20T15:21:41.815Z,99401.94
2022-12-20T15:24:14.179Z,99412.25
2022-12-20T15:26:41.470Z,99406.81
2022-12-20T15:29:19.307Z,99404.63
2022-12-20T15:31:47.170Z,99399.84
2022-12-20T15:34:20.596Z,99413.41
2022-12-20T15:36:48.072Z,99410.91
2022-12-20T15:39:15.921Z,99409.84
2022-12-20T15:41:47.877Z,99415.50
2022-12-20T15:44:17.233Z,99418.00
2022-12-20T15:46:45.030Z,99426.03
2022-12-20T15:49:16.259Z,99416.00
2022-12-20T15:51:44.924Z,99420.28
2022-12-20T15:54:33.263Z,99407.25
2022-12-20T15:57:03.298Z,99413.41
2022-12-20T16:02:28.704Z,99409.97
2022-12-20T16:05:21.004Z,99413.81
2022-12-20T16:07:48.386Z,99415.47
2022-12-20T16:10:15.702Z,99402.94
2022-12-20T16:12:42.903Z,99407.56
2022-12-20T16:15:21.844Z,99408.28
2022-12-20T16:17:49.368Z,99411.72
2022-12-20T16:20:16.514Z,99410.69
2022-12-20T16:22:43.638Z,99401.28
2022-12-20T16:25:32.109Z,99411.13
2022-12-20T16:27:59.491Z,99399.72
2022-12-20T16:30:27.175Z,99399.84
2022-12-20T16:32:54.686Z,99400.88
2022-12-20T16:35:28.183Z,99394.69
2022-12-20T16:37:57.195Z,99400.16
2022-12-20T16:40:31.499Z,99404.84
2022-12-20T16:42:59.802Z,99404.03
2022-12-20T16:45:31.480Z,99411.00
2022-12-20T16:47:58.990Z,99411.09
2022-12-20T16:50:27.826Z,99413.41
2022-12-20T16:52:55.102Z,99418.00
2022-12-20T16:55:28.512Z,99409.56
2022-12-20T16:57:55.889Z,99411.00
2022-12-20T17:00:28.320Z,99406.44
2022-12-20T17:02:56.940Z,99415.06
2022-12-20T17:05:30.881Z,99421.75
2022-12-20T17:07:58.620Z,99420.69
2022-12-20T17:10:27.194Z,99409.63
2022-12-20T17:12:55.255Z,99412.16
2022-12-20T17:15:25.919Z,99417.69
2022-12-20T17:17:53.728Z,99413.22
2022-12-20T17:20:22.047Z,99416.75
2022-12-20T17:22:50.647Z,99410.47
2022-12-20T17:25:25.282Z,99412.56
2022-12-20T17:27:52.848Z,99407.88
2022-12-20T17:30:20.270Z,99418.00
2022-12-20T17:32:47.911Z,99416.66
2022-12-20T17:35:24.031Z,99411.00
2022-12-20T17:37:54.314Z,99417.25
2022-12-20T17:40:21.887Z,99408.09
2022-12-20T17:42:49.367Z,99409.03
2022-12-20T17:45:22.666Z,99408.41
2022-12-20T17:47:50.042Z,99404.88
2022-12-20T17:50:18.198Z,99404.44
2022-12-20T17:52:46.171Z,99407.34
2022-12-20T17:55:22.507Z,99411.50
2022-12-20T17:57:50.123Z,99395.66
2022-12-20T18:00:36.630Z,99405.16
2022-12-20T18:03:44.983Z,99406.94
2022-12-20T18:06:08.327Z,99378.31
2022-12-20T18:08:36.558Z,99382.69
2022-12-20T18:11:03.697Z,99392.72
2022-12-20T18:13:31.465Z,99404.72
2022-12-20T18:15:58.719Z,99392.31
2022-12-20T18:18:26.046Z,99398.06
2022-12-20T18:21:05.242Z,99402.53
2022-12-20T18:23:33.989Z,99399.69
2022-12-20T18:26:19.573Z,99396.03
2022-12-20T18:28:51.181Z,99396.47
2022-12-20T18:31:20.469Z,99390.44
2022-12-20T18:33:53.870Z,99400.44
2022-12-20T18:36:35.250Z,99411.19
2022-12-20T18:39:06.060Z,99396.16
2022-12-20T18:41:33.532Z,99386.94
2022-12-20T18:44:04.310Z,99393.72
2022-12-20T18:46:33.320Z,99394.31
2022-12-20T18:49:01.646Z,99379.78
2022-12-20T18:51:38.081Z,99381.16
2022-12-20T18:54:07.691Z,99378.41
2022-12-20T18:56:37.346Z,99386.03
2022-12-20T18:59:11.624Z,99387.19
2022-12-20T19:01:40.400Z,99378.13
2022-12-20T19:04:08.545Z,99379.47
2022-12-20T19:06:36.692Z,99383.84
2022-12-20T19:09:10.308Z,99380.91
2022-12-20T19:11:37.787Z,99372.44
2022-12-20T19:14:05.266Z,99392.44
2022-12-20T19:16:34.343Z,99393.22
2022-12-20T19:19:11.029Z,99388.22
2022-12-20T19:21:41.118Z,99393.22
2022-12-20T19:24:10.971Z,99400.75
2022-12-20T19:26:41.521Z,99396.66
2022-12-20T19:29:09.586Z,99399.28
2022-12-20T19:31:37.736Z,99394.56
2022-12-20T19:34:07.918Z,99401.34
2022-12-20T19:36:39.776Z,99398.34
2022-12-20T19:39:08.264Z,99399.56
2022-12-20T19:41:36.049Z,99407.06
2022-12-20T19:44:04.687Z,99379.03
2022-12-20T19:46:34.554Z,99380.81
2022-12-20T19:49:02.039Z,99383.94
2022-12-20T19:51:29.402Z,99388.72
2022-12-20T19:53:57.930Z,99397.06
2022-12-20T19:56:29.250Z,99394.13
2022-12-20T19:58:56.498Z,99404.97
2022-12-20T20:01:28.264Z,99405.72
2022-12-20T20:03:57.682Z,99401.63
2022-12-20T20:06:25.567Z,99401.31
2022-12-20T20:08:52.687Z,99405.81
2022-12-20T20:11:21.349Z,99394.19
2022-12-20T20:13:48.614Z,99402.53
2022-12-20T20:16:21.904Z,99401.81
2022-12-20T20:18:50.726Z,99398.00
2022-12-20T20:21:21.967Z,99404.91
2022-12-20T20:23:53.377Z,99405.75
2022-12-20T20:26:27.393Z,99405.84
2022-12-20T20:29:01.487Z,99404.28
2022-12-20T20:31:29.050Z,99407.03
2022-12-20T20:33:57.870Z,99402.53
2022-12-20T20:36:25.326Z,99408.47
2022-12-20T20:38:52.541Z,99404.19
2022-12-20T20:41:19.897Z,99408.25
2022-12-20T20:43:47.097Z,99404.69
2022-12-20T20:46:15.945Z,99398.63
2022-12-20T20:48:44.205Z,99395.38
2022-12-20T20:51:13.150Z,99402.16
2022-12-20T20:53:41.515Z,99402.06
2022-12-20T20:56:09.129Z,99404.44
2022-12-20T20:58:36.732Z,99414.31
2022-12-20T21:01:05.558Z,99410.16
2022-12-20T21:03:32.998Z,99412.63
2022-12-20T21:06:36.545Z,99402.16
2022-12-20T21:08:47.508Z,99412.44
2022-12-20T21:11:14.947Z,99406.97
2022-12-20T21:13:43.469Z,99414.25
2022-12-20T21:16:21.294Z,99409.50
2022-12-20T21:18:52.649Z,99410.47
2022-12-20T21:21:20.572Z,99401.41
2022-12-20T21:23:48.337Z,99415.81
2022-12-20T21:26:16.958Z,99419.03
2022-12-20T21:28:47.274Z,99418.41
2022-12-20T21:31:18.460Z,99408.81
2022-12-20T21:34:10.932Z,99414.03
2022-12-20T21:36:38.222Z,99403.78
2022-12-20T21:39:11.194Z,99405.94
2022-12-20T21:41:38.308Z,99407.28
2022-12-20T21:44:05.515Z,99406.19
2022-12-20T21:46:32.941Z,99405.88
2022-12-20T21:49:00.224Z,99401.44
2022-12-20T21:51:29.020Z,99393.34
2022-12-20T21:53:58.819Z,99403.59
2022-12-20T21:56:27.977Z,99399.31
2022-12-20T21:58:55.412Z,99403.47
2022-12-20T22:01:25.752Z,99402.41
2022-12-20T22:03:58.356Z,99405.28
2022-12-20T22:06:25.792Z,99391.72
2022-12-20T22:08:52.981Z,99400.06
2022-12-20T22:11:20.297Z,99397.09
2022-12-20T22:13:47.597Z,99388.88
2022-12-20T22:16:21.208Z,99403.44
2022-12-20T22:18:50.465Z,99402.47
2022-12-20T22:21:18.896Z,99404.97
2022-12-20T22:23:46.128Z,99399.00
2022-12-20T22:26:15.229Z,99398.53
2022-12-20T22:28:51.284Z,99402.59
2022-12-20T22:31:19.410Z,99391.50
2022-12-20T22:33:47.117Z,99395.81
2022-12-20T22:36:15.780Z,99383.63
2022-12-20T22:38:43.628Z,99391.97
2022-12-20T22:41:11.848Z,99388.88
2022-12-20T22:43:39.415Z,99392.81
2022-12-20T22:46:06.685Z,99385.44
2022-12-20T22:48:33.872Z,99394.00
2022-12-20T22:51:09.666Z,99390.19
2022-12-20T22:53:37.329Z,99388.03
2022-12-20T22:56:05.347Z,99388.75
2022-12-20T22:58:33.787Z,99377.19
2022-12-20T23:01:03.296Z,99381.59
2022-12-20T23:03:31.159Z,99385.06
2022-12-20T23:06:00.548Z,99380.78
2022-12-20T23:08:29.401Z,99379.72
2022-12-20T23:11:15.407Z,99375.19
2022-12-20T23:14:01.458Z,99383.63
2022-12-20T23:16:29.451Z,99373.06
2022-12-20T23:19:00.502Z,99376.38
2022-12-20T23:21:47.819Z,99370.19
2022-12-20T23:24:15.588Z,99366.50
2022-12-20T23:26:42.933Z,99373.28
2022-12-20T23:29:11.617Z,99364.47
2022-12-20T23:31:38.657Z,99359.22
2022-12-20T23:34:06.098Z,99363.38
2022-12-20T23:36:36.234Z,99366.25
2022-12-20T23:39:03.816Z,99361.00
2022-12-20T23:41:31.049Z,99349.81
2022-12-20T23:43:58.270Z,99353.50
2022-12-20T23:46:25.439Z,99347.91
2022-12-20T23:48:53.287Z,99351.25
2022-12-20T23:51:20.920Z,99358.16
2022-12-20T23:53:48.239Z,99350.75
2022-12-20T23:56:17.674Z,99346.47
2022-12-20T23:58:46.194Z,99343.63
